• Join FlightAware (Why Join?)
  • Login
  • US Flag 
09:49AM EDT


 

Airport Tracker/Info


-or-


 

Live Flight TrackerFlight Track Log ✈ BJS621 ✈ 06-May-2013 ✈ KAPF - KPWK

Flight Track Log - Related Links

Times and Time Zones

All times are in EDT time to prevent confusion due to time zone crossing. See the BJS621 flight status page for this flight to view local times or setup timezone preferences in your user account.

Time Position Orientation Groundspeed Altitude Reporting Facility
EDT Latitude Longitude Course Direction KTS MPH feet Rate Location/Type
02:34PM 26.1247 -81.9100 343° North 210 242 5,300  Level Miami Center
02:36PM 26.1167 -82.0871 270° West  Level FlightAware Approximate
02:36PM 26.1150 -82.0692 270° West 260 299 12,200  Level Miami Center
02:37PM 26.1053 -82.1658 264° West 289 333 16,100 3,720 Climbing Miami Center
02:39PM 26.1047 -82.3085 340° North  Level FlightAware Approximate
02:39PM 26.3073 -82.4453 336° Northwest  Level FlightAware Approximate
02:39PM 26.1000 -82.3597 340° North 324 373 23,400  Level Miami Center
02:40PM 26.4270 -82.4868 343° North  Level FlightAware Approximate
02:40PM 26.1675 -82.3997 332° Northwest 293 337 25,800  Level Miami Center
02:41PM 26.2844 -82.4494 339° North 314 361 28,200 1,740 Climbing Miami Center
02:42PM 26.3667 -82.4833 340° North 343 395 29,300 1,260 Climbing Miami Center
02:43PM 26.4817 -82.5306 340° North 382 440 30,800 1,500 Climbing Miami Center
02:44PM 26.5928 -82.5731 341° North 405 466 32,300 1,500 Climbing Miami Center
02:45PM 26.7058 -82.6181 340° North 417 480 33,900 1,560 Climbing Miami Center
02:46PM 26.8167 -82.6653 339° North 422 486 35,500 1,320 Climbing Miami Center
02:48PM 26.9679 -82.6802 338° Northwest  Level FlightAware Approximate
02:48PM 27.0383 -82.7533 338° Northwest 422 486 37,900  Level Miami Center
02:50PM 27.1804 -82.7927 346° North  Level FlightAware Approximate
02:50PM 27.2686 -82.8422 346° North 422 486 39,500  Level Miami Center
02:52PM 27.4114 -82.8770 338° Northwest  Level FlightAware Approximate
02:52PM 27.4900 -82.9356 338° Northwest 433 498 40,700  Level Miami Center
02:54PM 27.7175 -83.0297 340° North 443 510 42,000 420 Climbing Miami Center
02:58PM 28.1289 -83.1186 349° North 444 511 43,000 180 Climbing Jacksonville Center
03:00PM 28.3875 -83.1333 357° North 463 533 43,000  Level Jacksonville Center
03:01PM 28.4961 -83.1431 356° North 458 527 43,000  Level Jacksonville Center
03:02PM 28.6256 -83.1550 355° North 458 527 43,000  Level Jacksonville Center
03:03PM 28.7506 -83.1672 355° North 453 521 43,000  Level Jacksonville Center
03:05PM 29.0011 -83.1917 355° North 453 521 43,000  Level Jacksonville Center
03:06PM 29.1264 -83.2039 355° North 453 521 43,000  Level Jacksonville Center
03:07PM 29.2536 -83.2164 355° North 453 521 43,000  Level Jacksonville Center
03:08PM 29.3789 -83.2286 355° North 453 521 43,000  Level Jacksonville Center
03:10PM 29.6314 -83.2533 355° North 446 513 43,000  Level Jacksonville Center
03:11PM 29.7567 -83.2683 354° North 446 513 43,000  Level Jacksonville Center
03:12PM 29.8858 -83.2783 356° North 452 520 43,000  Level Jacksonville Center
03:14PM 30.1203 -83.3042 355° North  Level FlightAware Approximate
03:16PM 30.4119 -83.3261 355° North 462 532 43,000  Level Jacksonville Center
03:17PM 30.5392 -83.3411 354° North 462 532 43,000  Level Jacksonville Center
03:18PM 30.6667 -83.3514 356° North 462 532 43,000  Level Jacksonville Center
03:19PM 30.7917 -83.3642 355° North 462 532 43,000  Level Jacksonville Center
03:21PM 30.9557 -83.3858 355° North  Level FlightAware Approximate
03:21PM 31.0245 -83.3934 355° North  Level FlightAware Approximate
03:24PM 31.4300 -83.4281 355° North 463 533 43,000  Level Atlanta Center
03:25PM 31.5553 -83.4394 356° North 463 533 43,000  Level Atlanta Center
03:27PM 31.8142 -83.4644 355° North 463 533 43,000  Level Atlanta Center
03:28PM 31.8545 -83.4828 355° North  Level FlightAware Approximate
03:28PM 31.9394 -83.4783 355° North 463 533 43,000  Level Atlanta Center
03:29PM 31.9732 -83.4940 355° North  Level FlightAware Approximate
03:29PM 32.0669 -83.4922 355° North 463 533 43,000  Level Atlanta Center
03:30PM 32.1942 -83.5039 356° North 463 533 43,000  Level Atlanta Center
03:32PM 32.4114 -83.5291 354° North  Level FlightAware Approximate
03:33PM 32.5806 -83.5433 354° North 463 533 43,000  Level Atlanta Center
03:34PM 32.7100 -83.5575 355° North 463 533 43,000  Level Atlanta Center
03:35PM 32.8394 -83.5692 356° North 463 533 43,000  Level Atlanta Center
03:37PM 33.1108 -83.5975 355° North 463 533 43,000  Level Atlanta Center
03:38PM 33.2403 -83.6117 355° North 463 533 43,000  Level Atlanta Center
03:39PM 33.3531 -83.6211 356° North 463 533 43,000  Level Atlanta Center
03:40PM 33.4847 -83.6353 355° North 463 533 43,000  Level Atlanta Center
03:41PM 33.6161 -83.6497 355° North 469 540 43,000  Level Atlanta Center
03:42PM 33.7414 -83.6617 355° North 459 528 43,000  Level Atlanta Center
03:44PM 33.9983 -83.6906 355° North 464 534 43,000  Level Atlanta Center
03:45PM 34.1256 -83.7025 356° North 464 534 43,000  Level Atlanta Center
03:47PM 34.3432 -83.7237 355° North  Level FlightAware Approximate
03:48PM 34.5119 -83.7414 355° North 464 534 43,000  Level Atlanta Center
03:50PM 34.7295 -83.7625 355° North  Level FlightAware Approximate
03:51PM 34.9169 -83.7881 355° North 467 537 43,000  Level Atlanta Center
03:52PM 35.0419 -83.8028 354° North 462 532 43,000  Level Atlanta Center
03:54PM 35.2570 -83.8307 334° Northwest  Level FlightAware Approximate
03:56PM 35.5892 -84.0033 334° Northwest 451 519 43,000  Level Indianapolis Center
03:57PM 35.6328 -84.0311 333° Northwest 446 513 43,000  Level Atlanta Center
03:58PM 35.7475 -84.1028 333° Northwest 446 513 43,000  Level Atlanta Center
04:00PM 35.9416 -84.2251 333° Northwest  Level FlightAware Approximate
04:01PM 36.0059 -84.2776 334° Northwest  Level FlightAware Approximate
04:01PM 36.1811 -84.3647 334° Northwest 459 528 43,000  Level Indianapolis Center
04:02PM 36.1127 -84.3421 334° Northwest  Level FlightAware Approximate
04:03PM 36.2944 -84.4342 334° Northwest 457 526 43,000  Level Indianapolis Center
04:04PM 36.4007 -84.5004 335° Northwest  Level FlightAware Approximate
04:05PM 36.5225 -84.5750 335° Northwest 459 528 43,000  Level Indianapolis Center
04:06PM 36.6364 -84.6458 333° Northwest 460 529 43,000  Level Indianapolis Center
04:07PM 36.6850 -84.6894 334° Northwest  Level FlightAware Approximate
04:07PM 36.7747 -84.7317 334° Northwest 463 533 43,000  Level Indianapolis Center
04:08PM 36.8889 -84.8031 333° Northwest 462 532 43,000  Level Indianapolis Center
04:10PM 37.1222 -84.9497 333° Northwest 459 528 43,000  Level Indianapolis Center
04:12PM 37.3146 -85.0568 336° Northwest  Level FlightAware Approximate
04:14PM 37.6072 -85.2356 335° Northwest 458 527 43,000  Level Indianapolis Center
04:15PM 37.7267 -85.2967 338° Northwest 459 528 43,000 -480 Level Indianapolis Center
04:16PM 37.8486 -85.3350 346° North 461 531 42,100 -1,140 Descending Indianapolis Center
04:17PM 37.9694 -85.3764 345° North 451 519 40,700 -1,620 Descending Indianapolis Center
04:18PM 38.0886 -85.4261 342° North 451 519 38,800 -1,920 Descending Indianapolis Center
04:19PM 38.0708 -85.5009 335° Northwest  Level FlightAware Approximate
04:19PM 38.2097 -85.4711 344° North 453 521 36,800  Level Indianapolis Center
04:20PM 38.3553 -85.5467 338° Northwest 482 555 34,400 -2,160 Descending Indianapolis Center
04:21PM 38.4717 -85.6278 331° Northwest 479 551 32,400 -1,200 Descending Indianapolis Center
04:22PM 38.5894 -85.7067 332° Northwest 477 549 32,000 -240 Descending Indianapolis Center
04:23PM 38.7003 -85.7817 332° Northwest 473 544 32,000 -300 Level Indianapolis Center
04:24PM 38.8169 -85.8592 333° Northwest 474 545 31,500 -540 Descending Indianapolis Center
04:25PM 38.9544 -85.9533 332° Northwest 468 539 31,000 -540 Descending Indianapolis Center
04:27PM 39.0651 -86.0901 316° Northwest  Level FlightAware Approximate
04:27PM 39.1361 -86.0786 316° Northwest 474 545 30,200  Level Chicago Center
04:28PM 39.2953 -86.1844 333° Northwest 458 527 29,500 -480 Descending Indianapolis Center
04:29PM 39.4094 -86.2639 332° Northwest 464 534 29,000 -240 Descending Indianapolis Center
04:31PM 39.5953 -86.3942 332° Northwest 474 545 29,000  Level Chicago Center
04:31PM 39.6658 -86.4417 333° Northwest 468 539 29,000 -480 Level Indianapolis Center
04:32PM 39.7825 -86.5225 332° Northwest 465 535 28,300 -1,320 Descending Indianapolis Center
04:33PM 39.8939 -86.6006 332° Northwest 454 522 26,300 -1,260 Descending Indianapolis Center
04:35PM 40.0017 -86.6753 332° Northwest 441 507 25,800 -840 Descending Indianapolis Center
04:37PM 40.2114 -86.8233 332° Northwest 425 489 23,800 -1,020 Descending Indianapolis Center
04:37PM 40.2733 -86.8672 332° Northwest 425 489 23,200 -2,100 Descending Chicago Center
04:39PM 40.4928 -87.0214 332° Northwest 404 465 18,300 -2,400 Descending Chicago Center
04:40PM 40.5886 -87.0858 333° Northwest 390 449 15,900 -2,280 Descending Chicago Center
04:41PM 40.6733 -87.1278 339° North 369 425 13,700 -1,920 Descending Chicago Center
04:42PM 40.7850 -87.1872 338° Northwest 363 418 12,000 -1,320 Descending Chicago Center
04:43PM 40.8750 -87.2356 338° Northwest 353 406 11,000 -1,500 Descending Chicago Center
04:45PM 40.9969 -87.2999 338° Northwest  Level FlightAware Approximate
04:47PM 41.1008 -87.3550 343° North 283 326 5,900  Level Chicago Center
04:49PM 41.2525 -87.4167 343° North 271 312 4,100 -600 Descending Chicago Center
04:50PM 41.3186 -87.3861 19° North 262 302 4,100  Level Chicago Center
04:51PM 41.4333 -87.3333 19° North 254 292 4,100  Level Chicago TRACON
04:52PM 41.7786 -87.3848 343° North  Level FlightAware Approximate
04:53PM 41.5667 -87.3167 North 263 303 4,100  Level Chicago TRACON
04:55PM 41.6828 -87.3344 353° North 266 306 4,000 -240 Descending Chicago Center
04:56PM 41.7544 -87.3442 354° North 266 306 3,600 -480 Descending Chicago Center
04:57PM 41.8236 -87.3553 353° North 233 268 3,100 -120 Descending Chicago Center
04:59PM 41.6172 -87.3933 179° South  Level FlightAware Approximate
05:03PM 42.1333 -87.5833 340° North 211 243 3,100  Level Chicago TRACON
05:04PM 42.1639 -87.6261 314° West 213 245 3,000 -240 Descending Chicago Center
05:05PM 42.1886 -87.6953 296° West 214 246 2,700 -180 Descending Chicago Center
05:06PM 41.7599 -87.3966 340° North  Level FlightAware Approximate
05:07PM 41.8760 -87.4451 334° Northwest  Level FlightAware Approximate
05:07PM 42.2167 -87.8500 284° West 212 244 2,600  Level Chicago TRACON
05:08PM 41.9892 -87.5072 342° North  Level FlightAware Approximate
05:08PM 42.1503 -87.8786 198° South 217 250 2,500  Level Chicago Center
05:09PM 42.1069 -87.5534 340° North  Level FlightAware Approximate
05:10PM 42.1143 -87.9015 169° South  Level Estimated
05:17PM 42.1143 -87.9015 169° South  Level Estimated
05:18PM 42.1143 -87.9015 169° South  Level Estimated